createdAt,value
2022-11-21T00:00:17.357Z,95762.03
2022-11-21T00:02:43.810Z,95756.81
2022-11-21T00:05:10.458Z,95751.47
2022-11-21T00:07:37.294Z,95745.56
2022-11-21T00:10:03.978Z,95732.78
2022-11-21T00:12:30.370Z,95744.00
2022-11-21T00:14:56.831Z,95740.81
2022-11-21T00:17:23.248Z,95739.44
2022-11-21T00:19:49.652Z,95720.00
2022-11-21T00:22:17.991Z,95729.69
2022-11-21T00:24:44.715Z,95747.78
2022-11-21T00:27:11.175Z,95739.44
2022-11-21T00:29:38.986Z,95733.69
2022-11-21T00:32:05.498Z,95747.91
2022-11-21T00:34:31.942Z,95756.81
2022-11-21T00:37:00.209Z,95770.50
2022-11-21T00:39:26.651Z,95769.91
2022-11-21T00:41:53.039Z,95776.59
2022-11-21T00:44:19.531Z,95783.72
2022-11-21T00:46:45.996Z,95789.03
2022-11-21T00:49:12.643Z,95802.06
2022-11-21T00:51:39.139Z,95784.84
2022-11-21T00:54:05.651Z,95800.53
2022-11-21T00:56:32.101Z,95805.28
2022-11-21T00:58:58.639Z,95809.06
2022-11-21T01:01:25.140Z,95800.19
2022-11-21T01:03:51.613Z,95806.31
2022-11-21T01:06:18.310Z,95820.66
2022-11-21T01:08:45.176Z,95833.41
2022-11-21T01:11:13.285Z,95838.88
2022-11-21T01:13:39.794Z,95826.66
2022-11-21T01:16:08.180Z,95845.00
2022-11-21T01:18:35.452Z,95859.56
2022-11-21T01:21:02.417Z,95866.34
2022-11-21T01:23:29.727Z,95879.50
2022-11-21T01:26:00.714Z,95880.28
2022-11-21T01:28:27.204Z,95889.72
2022-11-21T01:30:54.433Z,95901.19
2022-11-21T01:33:20.819Z,95911.84
2022-11-21T01:35:47.243Z,95920.97
2022-11-21T01:38:13.638Z,95916.34
2022-11-21T01:40:40.467Z,95933.47
2022-11-21T01:43:16.126Z,95939.78
2022-11-21T01:45:56.897Z,95963.38
2022-11-21T01:48:29.925Z,95977.63
2022-11-21T01:50:57.582Z,95984.53
2022-11-21T01:53:24.670Z,96015.72
2022-11-21T01:55:51.657Z,96034.81
2022-11-21T01:58:18.187Z,96054.47
2022-11-21T02:00:47.037Z,96062.44
2022-11-21T02:03:15.578Z,96070.13
2022-11-21T02:05:42.164Z,96076.47
2022-11-21T02:08:11.211Z,96109.81
2022-11-21T02:10:39.802Z,96124.75
2022-11-21T02:13:06.236Z,96112.38
2022-11-21T02:15:32.744Z,96093.16
2022-11-21T02:17:59.221Z,96101.50
2022-11-21T02:20:26.926Z,96134.56
2022-11-21T02:23:05.538Z,96142.63
2022-11-21T02:25:34.238Z,96147.66
2022-11-21T02:28:10.299Z,96136.91
2022-11-21T02:30:38.627Z,96153.28
2022-11-21T02:33:08.097Z,96180.63
2022-11-21T02:35:36.836Z,96168.41
2022-11-21T02:38:29.465Z,96168.41
2022-11-21T02:41:01.994Z,96140.13
2022-11-21T02:43:50.503Z,96153.81
2022-11-21T02:46:16.966Z,96154.44
2022-11-21T02:48:43.621Z,96143.31
2022-11-21T02:51:10.117Z,96139.84
2022-11-21T02:53:36.562Z,96122.97
2022-11-21T02:56:03.032Z,96145.00
2022-11-21T02:58:29.984Z,96143.59
2022-11-21T03:00:56.552Z,96150.22
2022-11-21T03:03:25.418Z,96152.41
2022-11-21T03:05:52.007Z,96154.56
2022-11-21T03:08:18.574Z,96163.25
2022-11-21T03:10:45.067Z,96177.69
2022-11-21T03:13:11.829Z,96174.72
2022-11-21T03:15:38.325Z,96157.44
2022-11-21T03:18:04.915Z,96145.16
2022-11-21T03:20:32.091Z,96155.56
2022-11-21T03:22:58.662Z,96155.56
2022-11-21T03:25:25.306Z,96137.03
2022-11-21T03:27:53.249Z,96114.56
2022-11-21T03:30:21.510Z,96099.75
2022-11-21T03:32:49.324Z,96104.84
2022-11-21T03:35:16.087Z,96110.50
2022-11-21T03:37:42.854Z,96107.72
2022-11-21T03:40:09.573Z,96085.53
2022-11-21T03:42:36.054Z,96095.91
2022-11-21T03:45:02.477Z,96112.28
2022-11-21T03:47:29.024Z,96114.47
2022-11-21T03:49:55.435Z,96108.94
2022-11-21T03:52:21.905Z,96098.22
2022-11-21T03:54:48.362Z,96103.88
2022-11-21T03:57:14.751Z,96105.94
2022-11-21T03:59:41.190Z,96111.28
2022-11-21T04:02:07.790Z,96101.00
2022-11-21T04:04:34.305Z,96099.59
2022-11-21T04:07:00.821Z,96118.16
2022-11-21T04:09:27.278Z,96136.06
2022-11-21T04:11:53.720Z,96130.09
2022-11-21T04:14:20.151Z,96120.91
2022-11-21T04:16:46.803Z,96131.31
2022-11-21T04:19:15.478Z,96132.59
2022-11-21T04:21:41.870Z,96137.00
2022-11-21T04:24:08.466Z,96132.22
2022-11-21T04:26:34.966Z,96127.66
2022-11-21T04:29:02.257Z,96147.66
2022-11-21T04:31:31.253Z,96160.06
2022-11-21T04:33:57.657Z,96159.88
2022-11-21T04:36:24.118Z,96145.38
2022-11-21T04:38:52.390Z,96167.19
2022-11-21T04:41:20.886Z,96164.41
2022-11-21T04:43:47.427Z,96167.72
2022-11-21T04:46:13.822Z,96156.03
2022-11-21T04:48:40.283Z,96168.00
2022-11-21T04:51:06.810Z,96163.31
2022-11-21T04:53:34.622Z,96160.66
2022-11-21T04:56:07.544Z,96153.22
2022-11-21T04:58:35.710Z,96159.19
2022-11-21T05:01:05.779Z,96180.22
2022-11-21T05:03:32.314Z,96154.34
2022-11-21T05:05:58.712Z,96153.38
2022-11-21T05:08:25.148Z,96131.19
2022-11-21T05:11:10.361Z,96142.81
2022-11-21T05:13:36.869Z,96143.47
2022-11-21T05:16:03.336Z,96149.44
2022-11-21T05:18:29.782Z,96139.78
2022-11-21T05:20:56.301Z,96146.84
2022-11-21T05:23:23.003Z,96161.22
2022-11-21T05:25:49.458Z,96149.44
2022-11-21T05:28:15.981Z,96143.94
2022-11-21T05:30:43.205Z,96134.00
2022-11-21T05:33:09.629Z,96154.13
2022-11-21T05:35:42.866Z,96160.75
2022-11-21T05:38:12.292Z,96171.91
2022-11-21T05:40:39.417Z,96166.38
2022-11-21T05:43:24.375Z,96173.28
2022-11-21T05:45:50.974Z,96180.50
2022-11-21T05:48:17.680Z,96166.72
2022-11-21T05:50:46.885Z,96156.81
2022-11-21T05:53:13.494Z,96156.59
2022-11-21T05:55:39.914Z,96182.56
2022-11-21T05:58:06.347Z,96190.16
2022-11-21T06:00:33.279Z,96195.47
2022-11-21T06:03:18.557Z,96193.38
2022-11-21T06:05:45.027Z,96207.06
2022-11-21T06:08:11.473Z,96216.19
2022-11-21T06:10:37.877Z,96219.63
2022-11-21T06:13:04.342Z,96222.59
2022-11-21T06:15:30.829Z,96208.59
2022-11-21T06:17:59.863Z,96223.06
2022-11-21T06:20:26.256Z,96233.75
2022-11-21T06:22:53.497Z,96236.72
2022-11-21T06:25:19.993Z,96216.91
2022-11-21T06:27:46.811Z,96210.00
2022-11-21T06:30:20.689Z,96221.03
2022-11-21T06:32:48.553Z,96227.63
2022-11-21T06:35:14.962Z,96221.66
2022-11-21T06:37:41.350Z,96215.34
2022-11-21T06:40:10.471Z,96218.84
2022-11-21T06:42:36.919Z,96211.63
2022-11-21T06:45:04.254Z,96218.38
2022-11-21T06:47:34.351Z,96216.63
2022-11-21T06:50:01.102Z,96238.28
2022-11-21T06:52:27.536Z,96253.97
2022-11-21T06:54:53.947Z,96256.19
2022-11-21T06:57:20.338Z,96239.06
2022-11-21T06:59:46.922Z,96220.81
2022-11-21T07:02:13.570Z,96235.63
2022-11-21T07:04:40.470Z,96227.72
2022-11-21T07:07:07.240Z,96225.84
2022-11-21T07:09:35.731Z,96251.31
2022-11-21T07:12:20.887Z,96239.81
2022-11-21T07:14:47.638Z,96246.53
2022-11-21T07:17:14.375Z,96261.78
2022-11-21T07:19:41.204Z,96257.22
2022-11-21T07:22:08.631Z,96250.28
2022-11-21T07:24:35.102Z,96262.72
2022-11-21T07:27:01.742Z,96266.63
2022-11-21T07:29:29.747Z,96280.44
2022-11-21T07:31:56.533Z,96273.84
2022-11-21T07:34:22.953Z,96288.75
2022-11-21T07:36:51.530Z,96294.25
2022-11-21T07:39:17.951Z,96284.00
2022-11-21T07:41:44.366Z,96294.38
2022-11-21T07:44:10.774Z,96289.69
2022-11-21T07:46:37.267Z,96274.44
2022-11-21T07:49:03.997Z,96266.72
2022-11-21T07:51:30.713Z,96282.16
2022-11-21T07:53:57.112Z,96279.66
2022-11-21T07:56:26.624Z,96286.97
2022-11-21T07:58:53.346Z,96300.16
2022-11-21T08:01:19.988Z,96324.97
2022-11-21T08:03:46.914Z,96325.47
2022-11-21T08:06:13.530Z,96311.59
2022-11-21T08:08:39.982Z,96326.22
2022-11-21T08:11:07.561Z,96304.25
2022-11-21T08:13:34.802Z,96298.75
2022-11-21T08:16:04.342Z,96295.28
2022-11-21T08:18:30.766Z,96293.25
2022-11-21T08:20:57.235Z,96290.25
2022-11-21T08:23:23.631Z,96274.97
2022-11-21T08:25:51.945Z,96286.59
2022-11-21T08:28:18.371Z,96286.81
2022-11-21T08:30:45.779Z,96278.13
2022-11-21T08:33:12.203Z,96272.47
2022-11-21T08:35:39.070Z,96285.50
2022-11-21T08:38:05.771Z,96294.59
2022-11-21T08:40:32.554Z,96288.16
2022-11-21T08:43:03.465Z,96294.28
2022-11-21T08:45:29.983Z,96297.56
2022-11-21T08:47:56.385Z,96297.56
2022-11-21T08:50:23.447Z,96286.69
2022-11-21T08:52:49.870Z,96301.44
2022-11-21T08:55:16.429Z,96294.09
2022-11-21T08:57:43.171Z,96276.47
2022-11-21T09:00:12.595Z,96272.47
2022-11-21T09:02:39.082Z,96280.53
2022-11-21T09:05:05.887Z,96277.72
2022-11-21T09:07:32.483Z,96269.34
2022-11-21T09:09:59.076Z,96265.13
2022-11-21T09:12:25.479Z,96247.72
2022-11-21T09:15:10.784Z,96238.16
2022-11-21T09:17:56.061Z,96211.19
2022-11-21T09:20:22.771Z,96207.75
2022-11-21T09:22:49.261Z,96196.16
2022-11-21T09:25:15.684Z,96191.72
2022-11-21T09:27:42.110Z,96179.47
2022-11-21T09:30:08.739Z,96170.22
2022-11-21T09:32:37.018Z,96160.56
2022-11-21T09:35:03.790Z,96138.59
2022-11-21T09:37:30.224Z,96125.56
2022-11-21T09:39:56.645Z,96130.00
2022-11-21T09:42:25.876Z,96115.53
2022-11-21T09:44:58.595Z,96095.34
2022-11-21T09:47:29.802Z,96114.44
2022-11-21T09:50:05.257Z,96105.19
2022-11-21T09:52:37.623Z,96086.13
2022-11-21T09:55:06.399Z,96079.44
2022-11-21T09:57:35.008Z,96080.78
2022-11-21T10:00:04.274Z,96084.56
2022-11-21T10:02:30.701Z,96061.00
2022-11-21T10:05:00.858Z,96065.44
2022-11-21T10:07:32.051Z,96080.09
2022-11-21T10:10:17.428Z,96079.44
2022-11-21T10:12:43.837Z,96065.81
2022-11-21T10:15:28.331Z,96088.63
2022-11-21T10:18:03.954Z,96102.50
2022-11-21T10:20:53.686Z,96092.22
2022-11-21T10:23:22.911Z,96106.31
2022-11-21T10:26:09.251Z,96127.78
2022-11-21T10:28:41.269Z,96135.59
2022-11-21T10:31:15.034Z,96137.41
2022-11-21T10:33:41.536Z,96148.31
2022-11-21T10:36:21.290Z,96158.53
2022-11-21T10:38:50.329Z,96149.63
2022-11-21T10:41:31.919Z,96159.03
2022-11-21T10:44:28.366Z,96178.56
2022-11-21T10:46:58.961Z,96190.38
2022-11-21T10:49:30.206Z,96189.34
2022-11-21T10:51:59.786Z,96211.53
2022-11-21T10:54:35.311Z,96226.41
2022-11-21T10:57:13.437Z,96243.22
2022-11-21T10:59:40.106Z,96247.84
2022-11-21T11:02:12.488Z,96270.19
2022-11-21T11:04:47.398Z,96306.03
2022-11-21T11:07:27.635Z,96315.41
2022-11-21T11:10:14.108Z,96307.38
2022-11-21T11:13:01.700Z,96333.94
2022-11-21T11:15:28.685Z,96354.72
2022-11-21T11:18:03.968Z,96354.16
2022-11-21T11:20:38.411Z,96371.75
2022-11-21T11:23:20.136Z,96403.34
2022-11-21T11:25:52.840Z,96431.69
2022-11-21T11:28:20.049Z,96464.81
2022-11-21T11:30:51.439Z,96481.31
2022-11-21T11:33:30.691Z,96518.47
2022-11-21T11:36:01.646Z,96560.75
2022-11-21T11:38:30.587Z,96567.31
2022-11-21T11:41:01.116Z,96592.47
2022-11-21T11:43:54.377Z,96613.84
2022-11-21T11:46:49.347Z,96627.84
2022-11-21T11:49:26.306Z,96637.91
2022-11-21T11:51:57.173Z,96619.47
2022-11-21T11:54:29.648Z,96621.50
2022-11-21T11:56:57.460Z,96639.28
2022-11-21T11:59:27.159Z,96686.94
2022-11-21T12:02:05.297Z,96738.97
2022-11-21T12:04:37.814Z,96724.22
2022-11-21T12:10:05.407Z,96716.84
2022-11-21T12:12:52.061Z,96709.09
2022-11-21T12:15:52.495Z,96714.63
2022-11-21T12:18:19.387Z,96709.59
2022-11-21T12:20:51.996Z,96716.97
2022-11-21T12:23:19.466Z,96697.63
2022-11-21T12:26:06.278Z,96681.75
2022-11-21T12:28:52.233Z,96683.00
2022-11-21T12:31:27.552Z,96646.25
2022-11-21T12:34:09.889Z,96632.56
2022-11-21T12:36:59.451Z,96608.88
2022-11-21T12:39:34.842Z,96605.09
2022-11-21T12:42:39.041Z,96583.44
2022-11-21T12:45:18.258Z,96555.97
2022-11-21T12:48:24.465Z,96534.44
2022-11-21T12:51:09.260Z,96520.00
2022-11-21T12:54:09.389Z,96480.91
2022-11-21T12:56:44.910Z,96437.88
2022-11-21T12:59:14.210Z,96426.41
2022-11-21T13:01:43.531Z,96416.25
2022-11-21T13:04:15.354Z,96378.09
2022-11-21T13:06:43.324Z,96357.78
2022-11-21T13:09:13.544Z,96343.38
2022-11-21T13:12:01.433Z,96317.19
2022-11-21T13:14:40.243Z,96299.16
2022-11-21T13:17:14.389Z,96267.03
2022-11-21T13:19:47.194Z,96271.03
2022-11-21T13:22:32.791Z,96243.09
2022-11-21T13:25:01.127Z,96215.25
2022-11-21T13:27:42.855Z,96186.50
2022-11-21T13:30:15.070Z,96169.31
2022-11-21T13:32:43.800Z,96155.22
2022-11-21T13:35:16.531Z,96131.97
2022-11-21T13:37:52.595Z,96120.63
2022-11-21T13:40:27.971Z,96105.91
2022-11-21T13:43:35.364Z,96087.56
2022-11-21T13:46:02.319Z,96057.28
2022-11-21T13:48:28.724Z,96060.38
2022-11-21T13:51:07.382Z,96066.53
2022-11-21T13:53:33.918Z,96045.47
2022-11-21T13:56:00.353Z,96033.91
2022-11-21T13:58:26.724Z,96042.53
2022-11-21T14:00:59.028Z,96043.81
2022-11-21T14:03:31.275Z,96041.59
2022-11-21T14:05:57.643Z,96033.09
2022-11-21T14:08:28.301Z,96030.94
2022-11-21T14:10:55.585Z,96031.47
2022-11-21T14:13:28.143Z,96012.72
2022-11-21T14:16:00.667Z,96015.19
2022-11-21T14:18:29.869Z,96017.78
2022-11-21T14:21:00.764Z,96031.53
2022-11-21T14:23:29.567Z,96025.34
2022-11-21T14:26:03.577Z,96014.91
2022-11-21T14:28:31.370Z,96018.31
2022-11-21T14:31:02.112Z,96024.63
2022-11-21T14:33:32.578Z,96014.69
2022-11-21T14:36:01.168Z,96017.00
2022-11-21T14:38:28.182Z,96013.13
2022-11-21T14:41:13.209Z,96021.78
2022-11-21T14:43:39.607Z,96011.81
2022-11-21T14:46:12.898Z,96015.47
2022-11-21T14:48:39.302Z,96032.63
2022-11-21T14:51:05.726Z,96024.16
2022-11-21T14:53:32.222Z,96013.59
2022-11-21T14:56:01.707Z,96019.75
2022-11-21T14:58:28.408Z,96025.28
2022-11-21T15:01:04.915Z,96013.63
2022-11-21T15:03:31.418Z,95998.25
2022-11-21T15:06:05.780Z,96001.13
2022-11-21T15:11:21.687Z,96023.78
2022-11-21T15:16:36.828Z,96050.19
2022-11-21T15:19:08.661Z,96059.94
2022-11-21T15:21:35.243Z,96050.78
2022-11-21T15:24:15.866Z,96069.59
2022-11-21T15:26:42.803Z,96096.66
2022-11-21T15:29:17.598Z,96100.72
2022-11-21T15:31:46.075Z,96104.72
2022-11-21T15:34:34.216Z,96129.13
2022-11-21T15:37:26.718Z,96147.03
2022-11-21T15:39:53.788Z,96157.38
2022-11-21T15:42:32.184Z,96148.06
2022-11-21T15:45:00.172Z,96183.94
2022-11-21T15:47:26.681Z,96210.59
2022-11-21T15:49:53.105Z,96210.59
2022-11-21T15:52:19.615Z,96195.16
2022-11-21T15:54:47.304Z,96213.41
2022-11-21T15:57:16.795Z,96232.69
2022-11-21T15:59:43.913Z,96252.03
2022-11-21T16:02:12.450Z,96252.78
2022-11-21T16:04:39.499Z,96276.81
2022-11-21T16:07:06.062Z,96278.88
2022-11-21T16:09:33.069Z,96277.16
2022-11-21T16:11:59.611Z,96264.06
2022-11-21T16:14:26.058Z,96276.81
2022-11-21T16:16:52.574Z,96281.38
2022-11-21T16:19:18.961Z,96283.72
2022-11-21T16:21:45.490Z,96262.22
2022-11-21T16:24:12.085Z,96271.47
2022-11-21T16:26:38.577Z,96286.25
2022-11-21T16:29:05.845Z,96284.41
2022-11-21T16:31:35.958Z,96293.78
2022-11-21T16:34:02.781Z,96291.56
2022-11-21T16:36:30.269Z,96292.88
2022-11-21T16:39:01.859Z,96296.78
2022-11-21T16:41:30.027Z,96276.88
2022-11-21T16:43:56.469Z,96270.88
2022-11-21T16:46:23.905Z,96274.19
2022-11-21T16:48:59.903Z,96258.22
2022-11-21T16:51:26.406Z,96231.41
2022-11-21T16:53:52.828Z,96204.41
2022-11-21T16:56:19.434Z,96208.50
2022-11-21T16:58:47.248Z,96200.66
2022-11-21T17:01:15.247Z,96184.25
2022-11-21T17:03:42.934Z,96179.00
2022-11-21T17:06:10.253Z,96155.97
2022-11-21T17:08:37.074Z,96153.34
2022-11-21T17:11:17.651Z,96150.38
2022-11-21T17:13:45.456Z,96130.56
2022-11-21T17:16:12.781Z,96132.16
2022-11-21T17:18:39.306Z,96135.97
2022-11-21T17:21:07.275Z,96127.97
2022-11-21T17:23:36.161Z,96105.00
2022-11-21T17:26:04.165Z,96094.19
2022-11-21T17:28:30.635Z,96109.16
2022-11-21T17:30:57.528Z,96112.44
2022-11-21T17:33:25.354Z,96095.91
2022-11-21T17:35:51.917Z,96091.84
2022-11-21T17:38:18.686Z,96081.06
2022-11-21T17:40:45.103Z,96080.28
2022-11-21T17:43:11.498Z,96047.75
2022-11-21T17:45:37.913Z,96045.41
2022-11-21T17:48:04.413Z,96046.38
2022-11-21T17:50:30.927Z,96033.69
2022-11-21T17:52:57.350Z,96029.72
2022-11-21T17:55:23.810Z,96037.09
2022-11-21T17:57:50.567Z,96035.53
2022-11-21T18:00:17.060Z,96041.03
2022-11-21T18:02:43.656Z,96029.09
2022-11-21T18:05:10.182Z,96032.31
2022-11-21T18:07:39.923Z,96041.63
2022-11-21T18:10:40.754Z,96040.84
2022-11-21T18:12:57.187Z,96028.91
2022-11-21T18:15:23.649Z,96031.81
2022-11-21T18:17:52.186Z,96039.13
2022-11-21T18:20:18.767Z,96057.66
2022-11-21T18:22:47.800Z,96058.59
2022-11-21T18:25:16.242Z,96058.88
2022-11-21T18:27:42.760Z,96077.44
2022-11-21T18:30:09.441Z,96090.28
2022-11-21T18:32:36.640Z,96086.25
2022-11-21T18:35:03.197Z,96076.16
2022-11-21T18:37:29.602Z,96075.03
2022-11-21T18:39:56.053Z,96073.81
2022-11-21T18:42:22.495Z,96083.84
2022-11-21T18:44:48.995Z,96078.19
2022-11-21T18:47:20.366Z,96072.66
2022-11-21T18:49:48.019Z,96095.13
2022-11-21T18:52:14.586Z,96109.16
2022-11-21T18:54:41.054Z,96112.41
2022-11-21T18:57:07.524Z,96113.94
2022-11-21T18:59:34.030Z,96121.47
2022-11-21T19:02:00.614Z,96119.59
2022-11-21T19:04:28.579Z,96119.16
2022-11-21T19:06:55.318Z,96113.47
2022-11-21T19:09:21.970Z,96124.78
2022-11-21T19:11:48.386Z,96138.72
2022-11-21T19:14:14.803Z,96134.81
2022-11-21T19:16:41.360Z,96139.19
2022-11-21T19:21:55.611Z,96147.66
2022-11-21T19:24:22.058Z,96143.44
2022-11-21T19:26:50.425Z,96149.72
2022-11-21T19:29:17.656Z,96141.53
2022-11-21T19:31:46.209Z,96141.06
2022-11-21T19:34:13.410Z,96151.25
2022-11-21T19:36:39.898Z,96149.53
2022-11-21T19:39:06.453Z,96147.31
2022-11-21T19:41:32.860Z,96135.66
2022-11-21T19:44:00.037Z,96143.81
2022-11-21T19:46:28.097Z,96157.78
2022-11-21T19:48:55.910Z,96157.31
2022-11-21T19:51:23.412Z,96150.53
2022-11-21T19:53:49.902Z,96145.22
2022-11-21T19:56:18.513Z,96157.16
2022-11-21T19:58:45.065Z,96156.84
2022-11-21T20:01:11.617Z,96154.63
2022-11-21T20:03:38.994Z,96134.47
2022-11-21T20:06:06.971Z,96139.69
2022-11-21T20:08:34.044Z,96139.88
2022-11-21T20:11:11.473Z,96154.78
2022-11-21T20:13:41.703Z,96145.03
2022-11-21T20:16:15.323Z,96139.97
2022-11-21T20:18:41.722Z,96154.59
2022-11-21T20:21:09.447Z,96154.47
2022-11-21T20:23:36.182Z,96153.47
2022-11-21T20:26:02.717Z,96148.09
2022-11-21T20:28:29.259Z,96164.75
2022-11-21T20:31:02.541Z,96160.50
2022-11-21T20:33:29.281Z,96174.81
2022-11-21T20:36:01.911Z,96164.28
2022-11-21T20:38:28.441Z,96142.59
2022-11-21T20:40:54.985Z,96137.19
2022-11-21T20:43:21.489Z,96144.56
2022-11-21T20:46:08.310Z,96171.50
2022-11-21T20:48:36.962Z,96164.88
2022-11-21T20:52:25.600Z,96147.75
2022-11-21T20:53:52.516Z,96126.16
2022-11-21T20:56:20.870Z,96113.22
2022-11-21T20:58:47.738Z,96100.50
2022-11-21T21:01:15.543Z,96105.44
2022-11-21T21:03:42.466Z,96081.38
2022-11-21T21:06:11.154Z,96063.94
2022-11-21T21:08:37.794Z,96072.78
2022-11-21T21:11:30.573Z,96068.13
2022-11-21T21:13:57.933Z,96043.78
2022-11-21T21:16:25.714Z,96024.09
2022-11-21T21:18:53.671Z,96018.63
2022-11-21T21:21:21.532Z,96029.34
2022-11-21T21:23:54.160Z,96005.81
2022-11-21T21:26:22.241Z,95985.41
2022-11-21T21:28:49.003Z,95972.56
2022-11-21T21:31:17.596Z,95979.41
2022-11-21T21:33:44.498Z,95960.28
2022-11-21T21:36:12.134Z,95953.25
2022-11-21T21:38:39.031Z,95920.34
2022-11-21T21:41:06.278Z,95931.00
2022-11-21T21:43:33.120Z,95936.88
2022-11-21T21:46:06.535Z,95924.97
2022-11-21T21:48:33.385Z,95895.91
2022-11-21T21:51:05.378Z,95880.41
2022-11-21T21:53:32.525Z,95883.78
2022-11-21T21:56:00.038Z,95884.34
2022-11-21T21:58:28.010Z,95878.22
2022-11-21T22:00:54.951Z,95853.72
2022-11-21T22:03:21.406Z,95847.94
2022-11-21T22:05:47.833Z,95849.69
2022-11-21T22:08:14.234Z,95848.59
2022-11-21T22:10:40.663Z,95834.41
2022-11-21T22:13:07.311Z,95825.16
2022-11-21T22:15:33.735Z,95826.91
2022-11-21T22:18:00.211Z,95828.34
2022-11-21T22:20:26.736Z,95817.94
2022-11-21T22:22:59.019Z,95797.50
2022-11-21T22:25:27.055Z,95802.16
2022-11-21T22:27:54.096Z,95795.94
2022-11-21T22:30:20.530Z,95788.34
2022-11-21T22:32:47.683Z,95763.72
2022-11-21T22:35:14.227Z,95766.06
2022-11-21T22:37:40.759Z,95761.25
2022-11-21T22:40:07.469Z,95763.47
2022-11-21T22:42:33.936Z,95746.47
2022-11-21T22:45:00.366Z,95744.13
2022-11-21T22:47:26.768Z,95746.34
2022-11-21T22:49:53.189Z,95742.38
2022-11-21T22:52:19.820Z,95723.00
2022-11-21T22:54:47.682Z,95727.44
2022-11-21T22:57:14.135Z,95732.56
2022-11-21T22:59:40.591Z,95730.25
2022-11-21T23:02:07.085Z,95716.34
2022-11-21T23:04:33.674Z,95703.41
2022-11-21T23:07:00.320Z,95709.31
2022-11-21T23:09:27.044Z,95714.22
2022-11-21T23:11:53.871Z,95709.19
2022-11-21T23:14:20.337Z,95709.63
2022-11-21T23:16:46.746Z,95705.66
2022-11-21T23:19:13.135Z,95711.78
2022-11-21T23:21:39.543Z,95698.50
2022-11-21T23:24:08.086Z,95704.63
2022-11-21T23:26:34.821Z,95709.41
2022-11-21T23:29:08.030Z,95719.88
2022-11-21T23:31:35.919Z,95710.75
2022-11-21T23:34:02.430Z,95699.81
2022-11-21T23:36:28.969Z,95715.31
2022-11-21T23:38:55.386Z,95717.41
2022-11-21T23:41:21.823Z,95707.16
2022-11-21T23:43:48.218Z,95701.56
2022-11-21T23:46:14.639Z,95704.03
2022-11-21T23:48:41.089Z,95708.50
2022-11-21T23:51:09.500Z,95698.91
2022-11-21T23:53:35.965Z,95694.44
2022-11-21T23:56:02.392Z,95707.16
2022-11-21T23:58:28.908Z,95713.16
